Time;durP1;ratioP1;P1;durP2;ratioP2;P2;SDS_P1;SDS_P2;PMS_P1;PMS_P2;Temp;Humidity;BMP_temperature;BMP_pressure;BME280_temperature;BME280_humidity;BME280_pressure;Samples;Min_cycle;Max_cycle;Signal;HPM_P1;HPM_P2
2022/03/25 00:01:00;;;;;;;26.27;15.32;;;3.60;99.90;;;;;;4995757;28;20038;-56
2022/03/25 00:03:26;;;;;;;17.92;15.55;;;3.60;99.90;;;;;;5013255;28;20107;-56
2022/03/25 00:05:52;;;;;;;40.83;20.90;;;3.40;99.90;;;;;;4995202;28;20046;-56
2022/03/25 00:08:18;;;;;;;183.38;38.28;;;;;;;;;;5012093;28;20066;-55
2022/03/25 00:10:44;;;;;;;86.60;34.45;;;;;;;;;;5012517;28;20065;-55
2022/03/25 00:13:10;;;;;;;56.55;33.10;;;;;;;;;;4979309;28;20128;-57
2022/03/25 00:15:36;;;;;;;179.07;35.63;;;3.60;99.90;;;;;;4995399;28;20034;-54
2022/03/25 00:18:02;;;;;;;61.42;31.02;;;;;;;;;;5012872;28;20042;-56
2022/03/25 00:20:28;;;;;;;59.30;31.52;;;;;;;;;;5012751;28;20106;-56
2022/03/25 00:22:54;;;;;;;69.57;31.23;;;3.50;99.90;;;;;;5012910;28;20103;-55
2022/03/25 00:25:20;;;;;;;72.18;35.33;;;;;;;;;;4994860;28;20507;-57
2022/03/25 00:27:46;;;;;;;51.05;31.67;;;;;;;;;;4995041;28;20050;-53
2022/03/25 00:30:12;;;;;;;101.57;37.47;;;3.30;99.90;;;;;;4994884;28;20499;-55
2022/03/25 00:32:38;;;;;;;180.50;40.20;;;3.10;99.90;;;;;;4979243;28;20050;-54
2022/03/25 00:35:04;;;;;;;73.15;35.15;;;3.20;99.90;;;;;;4978409;28;20034;-56
2022/03/25 00:37:30;;;;;;;184.48;37.92;;;3.40;99.90;;;;;;5012508;28;20429;-55
2022/03/25 00:39:56;;;;;;;252.15;36.88;;;3.30;99.90;;;;;;4994847;28;20097;-57
2022/03/25 00:42:21;;;;;;;297.67;36.58;;;3.40;99.90;;;;;;5012237;28;20086;-55
2022/03/25 00:44:47;;;;;;;121.90;30.70;;;;;;;;;;4978624;28;20103;-54
2022/03/25 00:47:14;;;;;;;76.93;31.60;;;3.20;99.90;;;;;;4994533;28;20042;-57
2022/03/25 00:49:39;;;;;;;122.75;30.58;;;3.30;99.90;;;;;;4995214;28;20042;-54
2022/03/25 00:52:05;;;;;;;186.88;32.88;;;3.20;99.90;;;;;;5012389;28;20463;-57
2022/03/25 00:54:31;;;;;;;205.95;36.85;;;3.10;99.90;;;;;;4994830;28;20041;-55
2022/03/25 00:56:57;;;;;;;213.07;35.60;;;3.10;99.90;;;;;;4978767;28;20065;-56
2022/03/25 00:59:22;;;;;;;217.80;36.67;;;3.30;99.90;;;;;;4994566;28;20426;-57
2022/03/25 01:01:48;;;;;;;234.45;33.83;;;;;;;;;;5011694;28;20046;-56
2022/03/25 01:04:14;;;;;;;144.35;32.83;;;;;;;;;;4994634;28;20049;-57
2022/03/25 01:06:40;;;;;;;114.63;31.45;;;3.10;99.90;;;;;;4994249;28;20074;-57
2022/03/25 01:09:06;;;;;;;73.55;30.45;;;;;;;;;;5012000;28;20069;-55
2022/03/25 01:11:35;;;;;;;81.97;30.60;;;3.20;99.90;;;;;;5011991;28;20045;-55
2022/03/25 01:14:01;;;;;;;120.30;29.70;;;;;;;;;;5011714;28;20065;-57
2022/03/25 01:16:26;;;;;;;144.35;28.63;;;3.40;99.90;;;;;;4994021;28;20414;-58
2022/03/25 01:18:52;;;;;;;49.42;28.45;;;;;;;;;;5011085;28;20038;-59
2022/03/25 01:21:18;;;;;;;62.28;26.65;;;;;;;;;;5011149;28;20044;-58
2022/03/25 01:23:45;;;;;;;85.40;27.27;;;3.30;99.90;;;;;;5011461;28;20098;-57
2022/03/25 01:26:11;;;;;;;99.80;26.58;;;3.30;99.90;;;;;;5011336;28;20117;-58
2022/03/25 01:28:37;;;;;;;79.53;27.45;;;3.10;99.90;;;;;;5011590;28;20083;-57
2022/03/25 01:31:03;;;;;;;95.20;28.00;;;3.10;99.90;;;;;;5011181;28;20042;-59
2022/03/25 01:33:30;;;;;;;70.63;25.92;;;;;;;;;;5011470;28;20042;-59
2022/03/25 01:35:56;;;;;;;153.40;28.27;;;3.20;99.90;;;;;;4994149;28;20050;-56
2022/03/25 01:38:23;;;;;;;74.53;25.50;;;;;;;;;;5010974;28;20060;-57
2022/03/25 01:40:49;;;;;;;40.35;25.00;;;;;;;;;;5011034;28;20048;-57
2022/03/25 01:43:15;;;;;;;89.93;25.88;;;2.90;99.90;;;;;;4993285;28;20058;-57
2022/03/25 01:45:41;;;;;;;75.80;24.95;;;2.90;99.90;;;;;;5011441;28;20061;-57
2022/03/25 01:48:18;;;;;;;51.97;23.90;;;2.70;99.90;;;;;;5010892;28;20099;-57
2022/03/25 01:50:46;;;;;;;54.70;25.17;;;;;;;;;;5011150;28;20412;-57
2022/03/25 01:53:17;;;;;;;52.22;24.83;;;;;;;;;;4993883;28;20081;-58
2022/03/25 01:55:56;;;;;;;70.43;23.73;;;2.50;99.90;;;;;;5011375;28;20042;-60
2022/03/25 01:58:22;;;;;;;56.30;23.17;;;2.40;99.90;;;;;;5011162;28;20471;-59
2022/03/25 02:00:48;;;;;;;70.10;25.13;;;;;;;;;;5010798;28;20049;-59
2022/03/25 02:03:16;;;;;;;48.28;24.45;;;;;;;;;;5011288;28;20045;-59
2022/03/25 02:05:42;;;;;;;72.65;26.58;;;;;;;;;;5011178;28;20049;-59
2022/03/25 02:08:08;;;;;;;67.30;26.52;;;2.60;99.90;;;;;;5010590;28;20399;-58
2022/03/25 02:10:34;;;;;;;99.65;26.42;;;;;;;;;;5010889;28;20515;-58
2022/03/25 02:12:59;;;;;;;134.73;28.35;;;2.40;99.90;;;;;;4977372;28;20042;-57
2022/03/25 02:15:36;;;;;;;180.80;31.23;;;2.60;99.90;;;;;;5010565;28;20052;-58
2022/03/25 02:18:06;;;;;;;114.63;29.52;;;;;;;;;;5010963;28;20038;-57
2022/03/25 02:20:33;;;;;;;71.00;27.80;;;;;;;;;;5010248;28;20042;-58
2022/03/25 02:22:59;;;;;;;143.30;27.80;;;;;;;;;;5010715;28;20034;-58
2022/03/25 02:25:29;;;;;;;101.97;27.48;;;;;;;;;;5010043;28;20559;-58
2022/03/25 02:27:56;;;;;;;97.88;26.67;;;;;;;;;;4993170;28;20054;-58
2022/03/25 02:30:22;;;;;;;83.10;26.95;;;2.40;99.90;;;;;;5010448;28;20113;-57
2022/03/25 02:32:47;;;;;;;58.90;25.88;;;;;;;;;;5010468;28;20495;-59
2022/03/25 02:35:13;;;;;;;59.00;26.17;;;;;;;;;;5010369;28;20033;-58
2022/03/25 02:37:39;;;;;;;90.18;27.55;;;2.20;99.90;;;;;;4993209;28;20106;-58
2022/03/25 02:40:05;;;;;;;85.78;26.83;;;;;;;;;;4992911;28;20057;-58
2022/03/25 02:42:31;;;;;;;119.40;27.45;;;;;;;;;;5010261;28;20149;-56
2022/03/25 02:44:57;;;;;;;88.05;27.85;;;2.40;99.90;;;;;;4992693;28;20046;-59
2022/03/25 02:47:22;;;;;;;204.98;31.42;;;2.30;99.90;;;;;;5010160;28;20057;-58
2022/03/25 02:49:51;;;;;;;75.32;28.15;;;;;;;;;;5009927;28;20456;-58
2022/03/25 02:52:17;;;;;;;123.28;28.83;;;;;;;;;;5010043;28;20365;-57
2022/03/25 02:54:43;;;;;;;58.30;26.00;;;;;;;;;;5010214;28;20041;-57
2022/03/25 02:57:08;;;;;;;104.72;27.15;;;2.30;99.90;;;;;;5010314;28;20481;-59
2022/03/25 02:59:34;;;;;;;128.40;28.38;;;2.40;99.90;;;;;;4992479;28;20114;-58
2022/03/25 03:02:00;;;;;;;317.25;37.17;;;;;;;;;;4992769;28;20113;-59
2022/03/25 03:04:27;;;;;;;71.32;24.90;;;;;;;;;;5011784;28;20049;-60
2022/03/25 03:06:53;;;;;;;127.10;27.85;;;;;;;;;;5010822;28;20488;-60
2022/03/25 03:09:18;;;;;;;42.58;24.02;;;2.00;99.90;;;;;;5011057;28;20048;-60
2022/03/25 03:11:44;;;;;;;112.63;24.63;;;;;;;;;;4993367;28;20097;-59
2022/03/25 03:14:11;;;;;;;129.48;25.45;;;;;;;;;;5011125;28;20381;-60
2022/03/25 03:16:37;;;;;;;93.45;24.80;;;;;;;;;;4993253;28;20049;-60
2022/03/25 03:19:03;;;;;;;111.53;24.45;;;1.70;99.90;;;;;;5010872;28;20042;-60
2022/03/25 03:21:29;;;;;;;163.80;26.17;;;1.90;99.90;;;;;;5010113;28;20052;-60
2022/03/25 03:23:55;;;;;;;85.93;23.25;;;;;;;;;;5010217;28;20507;-60
2022/03/25 03:26:22;;;;;;;120.53;25.33;;;;;;;;;;5010454;28;20046;-60
2022/03/25 03:28:48;;;;;;;103.78;26.20;;;;;;;;;;4993852;28;20087;-60
2022/03/25 03:31:14;;;;;;;56.40;23.33;;;;;;;;;;5010376;28;20069;-59
2022/03/25 03:33:40;;;;;;;65.03;22.95;;;;;;;;;;4997540;28;20043;-59
2022/03/25 03:36:06;;;;;;;43.65;22.58;;;;;;;;;;4957192;28;20044;-60
2022/03/25 03:38:32;;;;;;;48.13;23.10;;;;;;;;;;4990702;28;20131;-60
2022/03/25 03:40:58;;;;;;;64.20;22.50;;;;;;;;;;4991117;28;20034;-59
2022/03/25 03:43:24;;;;;;;89.13;23.17;;;;;;;;;;4959599;28;20060;-59
2022/03/25 03:45:50;;;;;;;102.38;22.88;;;1.50;99.90;;;;;;4991949;28;20076;-59
2022/03/25 03:48:15;;;;;;;94.43;24.92;;;1.50;99.90;;;;;;5013809;28;20492;-60
2022/03/25 03:50:41;;;;;;;116.28;24.42;;;1.50;99.90;;;;;;4980125;28;20037;-60
2022/03/25 03:53:07;;;;;;;81.90;25.13;;;;;;;;;;5014196;28;20046;-59
2022/03/25 03:55:34;;;;;;;43.17;23.52;;;;;;;;;;5014314;28;20029;-60
2022/03/25 03:58:00;;;;;;;97.93;25.63;;;;;;;;;;5013869;28;20069;-60
2022/03/25 04:00:25;;;;;;;78.40;25.15;;;;;;;;;;5013791;28;20045;-59
2022/03/25 04:02:52;;;;;;;124.18;27.73;;;;;;;;;;5013740;28;20034;-60
2022/03/25 04:05:17;;;;;;;139.40;27.63;;;;;;;;;;4996282;28;20048;-60
2022/03/25 04:07:46;;;;;;;41.72;25.42;;;1.40;99.90;;;;;;5013033;28;20133;-60
2022/03/25 04:10:13;;;;;;;42.55;23.77;;;1.40;99.90;;;;;;4996297;28;20515;-60
2022/03/25 04:12:39;;;;;;;49.70;24.13;;;;;;;;;;4996601;28;20037;-60
2022/03/25 04:15:09;;;;;;;73.10;25.05;;;;;;;;;;4995370;28;20053;-57
2022/03/25 04:17:35;;;;;;;149.35;28.58;;;;;;;;;;5012450;28;20034;-57
2022/03/25 04:20:01;;;;;;;100.65;26.02;;;;;;;;;;5011898;28;20045;-57
2022/03/25 04:22:27;;;;;;;101.70;24.90;;;;;;;;;;5012005;28;20034;-58
2022/03/25 04:24:55;;;;;;;74.75;26.45;;;;;;;;;;4994764;28;20073;-58
2022/03/25 04:27:21;;;;;;;203.23;27.98;;;;;;;;;;5012375;28;20432;-57
2022/03/25 04:29:47;;;;;;;84.68;26.27;;;;;;;;;;5012299;28;20128;-58
2022/03/25 04:32:13;;;;;;;58.38;26.65;;;;;;;;;;5012144;28;20117;-58
2022/03/25 04:34:39;;;;;;;85.03;25.55;;;;;;;;;;5011833;28;20076;-58
2022/03/25 04:37:05;;;;;;;48.80;24.25;;;;;;;;;;4994460;28;20171;-58
2022/03/25 04:39:36;;;;;;;98.18;26.92;;;;;;;;;;4994816;28;20090;-57
2022/03/25 04:42:02;;;;;;;80.80;26.23;;;;;;;;;;4994230;28;20423;-56
2022/03/25 04:44:28;;;;;;;124.38;27.98;;;;;;;;;;5012329;28;20038;-57
2022/03/25 04:46:55;;;;;;;62.15;25.67;;;;;;;;;;4994559;28;20042;-56
2022/03/25 04:49:21;;;;;;;75.03;25.38;;;;;;;;;;5011613;28;20045;-56
2022/03/25 04:51:47;;;;;;;107.20;26.42;;;;;;;;;;4994567;28;20077;-58
2022/03/25 04:54:14;;;;;;;124.57;27.08;;;;;;;;;;5010724;28;20091;-56
2022/03/25 04:56:40;;;;;;;86.68;24.73;;;;;;;;;;5012263;28;20395;-57
2022/03/25 04:59:06;;;;;;;123.20;27.95;;;;;;;;;;5011717;28;20121;-57
2022/03/25 05:01:32;;;;;;;61.00;25.02;;;;;;;;;;5011776;28;20073;-58
2022/03/25 05:03:58;;;;;;;78.82;25.20;;;1.20;99.90;;;;;;5011614;28;20076;-57
2022/03/25 05:06:24;;;;;;;101.38;27.25;;;;;;;;;;5011489;28;20050;-57
2022/03/25 05:08:50;;;;;;;102.25;27.30;;;;;;;;;;5011755;28;20092;-56
2022/03/25 05:11:16;;;;;;;78.80;25.75;;;;;;;;;;5011650;28;20399;-56
2022/03/25 05:13:43;;;;;;;149.25;27.17;;;;;;;;;;5011576;28;20391;-55
2022/03/25 05:16:09;;;;;;;130.70;27.23;;;;;;;;;;4994020;28;20046;-58
2022/03/25 05:18:35;;;;;;;122.75;27.40;;;;;;;;;;5011832;28;20046;-58
2022/03/25 05:21:01;;;;;;;181.07;30.00;;;;;;;;;;5011534;28;20049;-57
2022/03/25 05:23:27;;;;;;;111.90;25.30;;;;;;;;;;4994417;28;20042;-57
2022/03/25 05:25:54;;;;;;;107.05;26.95;;;;;;;;;;5011792;28;20049;-57
2022/03/25 05:28:20;;;;;;;55.10;23.65;;;0.80;99.90;;;;;;5011480;28;20053;-58
2022/03/25 05:30:46;;;;;;;117.00;26.05;;;;;;;;;;4990846;28;20372;-56
2022/03/25 05:33:12;;;;;;;74.93;24.23;;;;;;;;;;4993767;28;20045;-57
2022/03/25 05:35:37;;;;;;;40.92;22.98;;;0.80;99.90;;;;;;5011286;28;20049;-57
2022/03/25 05:38:03;;;;;;;54.90;23.60;;;;;;;;;;4977432;28;20334;-56
2022/03/25 05:40:30;;;;;;;126.00;25.88;;;;;;;;;;4990471;28;20507;-57
2022/03/25 05:42:56;;;;;;;76.43;22.60;;;;;;;;;;4991257;28;20522;-56
2022/03/25 05:45:22;;;;;;;44.42;21.20;;;;;;;;;;5044940;28;20044;-59
2022/03/25 05:47:49;;;;;;;53.55;22.85;;;;;;;;;;5108767;28;20050;-57
2022/03/25 05:50:15;;;;;;;45.95;21.20;;;;;;;;;;5108730;28;20519;-57
2022/03/25 05:52:41;;;;;;;55.40;22.83;;;;;;;;;;5067710;28;20042;-58
2022/03/25 05:55:08;;;;;;;37.30;20.65;;;;;;;;;;4986380;28;20101;-57
2022/03/25 05:57:34;;;;;;;71.35;22.90;;;0.80;99.90;;;;;;4986245;28;20106;-60
2022/03/25 06:00:01;;;;;;;81.18;22.63;;;;;;;;;;4986193;28;20042;-58
2022/03/25 06:02:27;;;;;;;70.03;23.00;;;;;;;;;;4985990;28;20129;-58
2022/03/25 06:04:53;;;;;;;66.78;23.33;;;;;;;;;;4986056;28;20053;-58
2022/03/25 06:07:19;;;;;;;47.80;21.98;;;;;;;;;;4973068;28;20043;-60
2022/03/25 06:09:45;;;;;;;36.53;21.77;;;;;;;;;;5001243;28;20383;-61
2022/03/25 06:12:11;;;;;;;30.02;20.13;;;;;;;;;;4970187;28;20050;-59
2022/03/25 06:14:38;;;;;;;63.13;23.55;;;;;;;;;;4987696;28;20042;-58
2022/03/25 06:17:04;;;;;;;33.40;21.35;;;1.10;99.90;;;;;;4990932;28;20042;-60
2022/03/25 06:19:30;;;;;;;53.53;22.25;;;1.20;99.90;;;;;;5004240;28;20084;-62
2022/03/25 06:21:56;;;;;;;31.73;20.75;;;1.30;99.90;;;;;;4993185;28;20515;-62
2022/03/25 06:24:22;;;;;;;48.00;22.25;;;1.30;99.90;;;;;;5011475;28;20038;-61
2022/03/25 06:26:48;;;;;;;73.13;22.52;;;;;;;;;;5010511;28;20125;-62
2022/03/25 06:29:14;;;;;;;77.53;21.70;;;1.40;99.90;;;;;;4985660;28;20137;-62
2022/03/25 06:31:39;;;;;;;27.85;20.48;;;1.50;99.90;;;;;;4995503;28;20033;-61
2022/03/25 06:34:05;;;;;;;47.90;19.77;;;;;;;;;;4991420;28;20065;-62
2022/03/25 06:36:31;;;;;;;31.08;20.55;;;1.70;99.90;;;;;;5009977;28;20117;-62
2022/03/25 06:38:57;;;;;;;84.20;22.98;;;;;;;;;;5010463;28;20464;-61
2022/03/25 06:41:23;;;;;;;108.07;24.67;;;2.00;99.90;;;;;;4992582;28;20523;-61
2022/03/25 06:43:52;;;;;;;44.45;21.17;;;;;;;;;;5010775;28;20069;-61
2022/03/25 06:46:18;;;;;;;128.10;25.83;;;2.10;99.90;;;;;;4999968;28;20062;-62
2022/03/25 06:48:44;;;;;;;101.50;22.75;;;;;;;;;;4977888;28;20495;-62
2022/03/25 06:51:10;;;;;;;83.70;21.50;;;2.40;99.90;;;;;;4992431;28;20034;-61
2022/03/25 06:53:36;;;;;;;98.65;21.42;;;2.50;99.90;;;;;;5009978;28;20041;-61
2022/03/25 06:56:02;;;;;;;49.70;20.98;;;2.50;99.90;;;;;;5000629;28;20118;-62
2022/03/25 06:58:29;;;;;;;24.85;18.85;;;;;;;;;;4978546;28;20092;-63
2022/03/25 07:00:55;;;;;;;50.88;21.00;;;2.90;99.90;;;;;;4990737;28;20042;-63
2022/03/25 07:03:21;;;;;;;31.23;19.83;;;3.50;99.90;;;;;;5011406;28;20049;-63
2022/03/25 07:05:47;;;;;;;29.17;18.75;;;4.00;99.90;;;;;;4993276;28;20372;-61
2022/03/25 07:08:13;;;;;;;30.95;18.30;;;4.50;99.90;;;;;;4992475;28;20052;-64
2022/03/25 07:10:39;;;;;;;27.92;19.40;;;5.00;99.90;;;;;;4989959;28;20042;-64
2022/03/25 07:13:05;;;;;;;23.17;16.25;;;5.60;99.90;;;;;;5016830;28;20038;-64
2022/03/25 07:15:30;;;;;;;23.77;17.30;;;6.00;99.90;;;;;;5079526;28;20042;-63
2022/03/25 07:17:56;;;;;;;20.05;16.42;;;6.80;99.90;;;;;;5007992;28;20118;-62
2022/03/25 07:20:25;;;;;;;23.95;17.30;;;7.30;99.90;;;;;;5014001;28;20392;-62
2022/03/25 07:22:52;;;;;;;21.17;17.27;;;8.20;99.90;;;;;;4995612;28;20050;-62
2022/03/25 07:25:19;;;;;;;27.55;20.10;;;;;;;;;;5013885;28;20049;-65
2022/03/25 07:27:46;;;;;;;22.65;17.90;;;9.80;99.90;;;;;;4979897;28;20103;-62
2022/03/25 07:30:14;;;;;;;24.13;18.10;;;10.60;99.90;;;;;;5017326;28;20601;-64
2022/03/25 07:32:41;;;;;;;23.35;17.23;;;;;;;;;;4985908;28;20137;-64
2022/03/25 07:35:08;;;;;;;25.05;18.33;;;11.80;99.90;;;;;;5004902;28;20063;-63
2022/03/25 07:37:34;;;;;;;31.65;21.27;;;;;;;;;;4980862;28;20102;-63
2022/03/25 07:40:00;;;;;;;26.88;21.50;;;13.00;99.90;;;;;;4986927;28;20083;-63
2022/03/25 07:42:25;;;;;;;32.17;23.33;;;13.40;99.90;;;;;;5000838;28;20062;-64
2022/03/25 07:44:51;;;;;;;31.02;23.23;;;;;;;;;;4982957;28;20138;-63
2022/03/25 07:47:17;;;;;;;31.35;23.13;;;;;;;;;;4984013;28;20041;-64
2022/03/25 07:49:43;;;;;;;32.42;24.45;;;14.50;99.90;;;;;;5002675;28;20050;-64
2022/03/25 07:52:10;;;;;;;35.47;24.65;;;14.90;99.90;;;;;;4999697;28;20033;-65
2022/03/25 07:54:37;;;;;;;38.60;25.73;;;14.80;99.90;;;;;;4966618;28;20167;-64
2022/03/25 07:57:03;;;;;;;36.47;26.25;;;15.20;99.90;;;;;;4996857;28;20042;-63
2022/03/25 07:59:29;;;;;;;34.88;24.60;;;15.50;99.90;;;;;;5000366;28;20095;-64
2022/03/25 08:01:56;;;;;;;39.75;26.23;;;15.30;99.90;;;;;;4995285;28;20061;-62
2022/03/25 08:04:24;;;;;;;39.35;25.73;;;14.90;99.90;;;;;;4992292;28;20046;-65
2022/03/25 08:06:53;;;;;;;36.03;24.98;;;14.50;99.90;;;;;;4981982;28;20049;-65
2022/03/25 08:09:20;;;;;;;40.88;26.02;;;14.20;99.90;;;;;;4966484;28;20046;-65
2022/03/25 08:11:46;;;;;;;36.85;24.73;;;;;;;;;;5478148;23;20031;-65
2022/03/25 08:14:13;;;;;;;40.97;26.40;;;14.20;99.90;;;;;;4982905;28;20054;-65
2022/03/25 08:16:38;;;;;;;37.05;24.95;;;14.80;99.90;;;;;;4983025;28;20445;-66
2022/03/25 08:19:05;;;;;;;36.95;25.10;;;15.20;99.90;;;;;;4984617;28;20042;-65
2022/03/25 08:21:30;;;;;;;37.17;24.40;;;15.60;99.90;;;;;;4979806;28;20046;-66
2022/03/25 08:29:42;;;;;;;34.10;23.77;;;16.20;99.90;;;;;;4889409;29;21191;-64
2022/03/25 08:32:08;;;;;;;37.50;23.35;;;16.10;99.90;;;;;;4941524;28;20062;-64
2022/03/25 08:34:33;;;;;;;44.80;24.30;;;15.80;99.90;;;;;;4955379;28;20043;-63
2022/03/25 08:36:59;;;;;;;34.80;23.58;;;16.50;99.90;;;;;;4969772;28;20050;-64
2022/03/25 08:39:24;;;;;;;37.22;21.90;;;16.70;99.90;;;;;;4965563;28;20045;-64
2022/03/25 08:41:50;;;;;;;36.25;21.60;;;16.90;99.90;;;;;;4950621;28;20092;-66
2022/03/25 08:44:16;;;;;;;33.40;20.58;;;17.20;99.90;;;;;;4970079;28;20045;-65
2022/03/25 08:46:42;;;;;;;31.63;20.67;;;17.10;99.90;;;;;;4970982;28;20054;-64
2022/03/25 08:49:10;;;;;;;35.13;20.85;;;17.20;99.90;;;;;;4971243;28;20050;-63
2022/03/25 08:51:35;;;;;;;33.55;20.58;;;17.00;99.90;;;;;;4954748;28;20992;-63
2022/03/25 08:54:01;;;;;;;32.33;18.17;;;17.00;99.90;;;;;;4956332;28;20589;-63
2022/03/25 08:56:30;;;;;;;31.85;20.42;;;16.90;99.90;;;;;;4969638;28;20484;-62
2022/03/25 08:58:58;;;;;;;29.50;18.55;;;17.20;99.90;;;;;;4940128;28;20042;-64
2022/03/25 09:01:24;;;;;;;24.60;15.75;;;17.60;99.90;;;;;;4969869;28;20042;-60
2022/03/25 09:03:50;;;;;;;24.35;15.15;;;18.30;99.90;;;;;;4951897;28;20080;-61
2022/03/25 09:06:17;;;;;;;24.67;14.57;;;18.00;99.90;;;;;;4952741;28;20050;-62
2022/03/25 09:08:42;;;;;;;31.52;15.90;;;18.00;99.90;;;;;;4972558;28;20046;-62
2022/03/25 09:11:09;;;;;;;26.70;16.77;;;17.80;99.90;;;;;;4955422;28;20100;-61
2022/03/25 09:13:35;;;;;;;31.30;17.30;;;18.30;99.60;;;;;;4972642;28;20508;-61
2022/03/25 09:16:01;;;;;;;30.85;17.20;;;19.30;99.10;;;;;;4970906;28;20054;-61
2022/03/25 09:18:26;;;;;;;33.47;17.02;;;20.00;98.00;;;;;;4953549;28;20043;-60
2022/03/25 09:20:52;;;;;;;36.80;19.00;;;20.70;96.90;;;;;;4970481;28;20175;-60
2022/03/25 09:23:18;;;;;;;28.58;17.67;;;21.50;96.10;;;;;;4952747;28;21191;-62
2022/03/25 09:25:43;;;;;;;25.98;17.48;;;21.30;94.80;;;;;;4954412;28;20110;-63
2022/03/25 09:28:09;;;;;;;27.20;17.40;;;20.80;94.90;;;;;;4953789;28;20050;-63
2022/03/25 09:30:35;;;;;;;32.05;18.52;;;19.70;94.90;;;;;;4954741;28;20172;-62
2022/03/25 09:33:00;;;;;;;30.55;19.50;;;19.60;95.00;;;;;;4955271;28;20109;-63
2022/03/25 09:35:26;;;;;;;31.38;17.77;;;19.30;95.20;;;;;;4973872;28;20035;-63
2022/03/25 09:37:52;;;;;;;31.90;19.70;;;19.00;95.20;;;;;;4956235;28;20050;-61
2022/03/25 09:40:21;;;;;;;34.17;20.35;;;18.60;95.60;;;;;;4972124;28;20056;-62
2022/03/25 09:42:48;;;;;;;35.50;20.85;;;18.50;95.80;;;;;;4974406;28;20069;-64
2022/03/25 09:45:18;;;;;;;35.33;20.77;;;17.80;95.70;;;;;;4956432;28;20054;-63
2022/03/25 09:47:45;;;;;;;33.83;21.95;;;17.90;95.90;;;;;;4973737;28;20065;-65
2022/03/25 09:50:16;;;;;;;31.58;20.40;;;17.70;96.80;;;;;;4954216;28;20077;-63
2022/03/25 09:52:43;;;;;;;33.42;20.38;;;17.70;96.60;;;;;;4953383;28;20050;-64
2022/03/25 09:55:09;;;;;;;31.75;19.27;;;17.40;96.70;;;;;;4939583;28;20057;-64
2022/03/25 09:57:35;;;;;;;31.15;20.55;;;17.60;97.30;;;;;;4973245;28;20054;-64
2022/03/25 10:00:00;;;;;;;33.90;18.98;;;17.60;97.50;;;;;;4957094;28;20042;-64
2022/03/25 10:02:26;;;;;;;27.33;16.67;;;17.70;97.40;;;;;;4972364;28;20053;-64
2022/03/25 10:04:53;;;;;;;36.50;18.95;;;17.70;97.20;;;;;;4973982;28;20399;-64
2022/03/25 10:07:23;;;;;;;32.33;18.35;;;16.90;97.20;;;;;;4972717;28;20475;-65
2022/03/25 10:10:09;;;;;;;29.58;18.65;;;17.80;97.70;;;;;;4957144;28;20145;-66
2022/03/25 10:12:36;;;;;;;32.22;18.08;;;17.90;97.40;;;;;;4971417;28;20051;-66
2022/03/25 10:15:23;;;;;;;29.70;17.85;;;17.80;97.00;;;;;;4973446;28;20060;-65
2022/03/25 10:17:52;;;;;;;35.72;19.08;;;18.00;97.10;;;;;;4955310;28;20054;-66
2022/03/25 10:20:22;;;;;;;30.42;18.17;;;17.80;96.70;;;;;;4973659;28;20054;-66
2022/03/25 10:23:11;;;;;;;30.13;17.35;;;17.80;96.80;;;;;;4955203;28;20042;-65
2022/03/25 10:26:06;;;;;;;34.88;18.00;;;17.70;95.60;;;;;;4955900;28;20054;-65
2022/03/25 10:28:42;;;;;;;33.30;19.83;;;17.90;97.20;;;;;;4972581;28;20081;-65
2022/03/25 10:31:14;;;;;;;35.83;19.08;;;18.50;96.90;;;;;;4973222;28;20143;-65
2022/03/25 10:33:57;;;;;;;32.10;19.50;;;18.50;97.00;;;;;;4955033;28;20061;-66
2022/03/25 10:36:25;;;;;;;33.40;18.60;;;18.30;96.50;;;;;;4955193;28;20050;-66
2022/03/25 10:39:05;;;;;;;29.15;17.85;;;18.60;96.40;;;;;;4972280;28;20504;-66
2022/03/25 10:41:42;;;;;;;32.20;19.17;;;18.40;96.20;;;;;;4972812;28;20050;-66
2022/03/25 10:44:10;;;;;;;38.45;19.02;;;18.40;95.80;;;;;;4972193;28;20046;-66
2022/03/25 10:46:41;;;;;;;31.33;17.75;;;18.50;96.30;;;;;;4971617;28;20108;-66
2022/03/25 10:49:10;;;;;;;30.98;18.98;;;18.30;95.60;;;;;;4974384;28;20168;-66
2022/03/25 10:51:38;;;;;;;28.60;17.02;;;18.50;96.10;;;;;;4974133;28;20077;-66
2022/03/25 10:54:09;;;;;;;31.50;18.15;;;18.20;96.20;;;;;;4959959;28;20054;-66
2022/03/25 10:56:51;;;;;;;32.33;19.25;;;18.40;96.20;;;;;;4960528;28;20054;-66
2022/03/25 10:59:31;;;;;;;30.15;17.40;;;18.10;95.10;;;;;;4960783;28;20043;-66
2022/03/25 11:02:00;;;;;;;34.80;19.13;;;18.30;95.70;;;;;;4979171;28;20043;-66
2022/03/25 11:04:27;;;;;;;30.85;17.80;;;18.30;96.10;;;;;;4961338;28;20416;-66
2022/03/25 11:06:53;;;;;;;34.40;18.40;;;18.40;95.70;;;;;;4959220;28;20599;-66
2022/03/25 11:09:20;;;;;;;30.83;18.27;;;18.40;95.60;;;;;;4978955;28;20462;-66
2022/03/25 11:11:48;;;;;;;28.98;17.77;;;18.30;95.80;;;;;;4978169;28;20053;-66
2022/03/25 11:14:14;;;;;;;35.72;17.48;;;18.10;96.20;;;;;;4961445;28;20062;-66
2022/03/25 11:16:43;;;;;;;32.20;18.27;;;18.20;96.50;;;;;;4975208;28;20046;-66
2022/03/25 11:19:10;;;;;;;30.17;17.15;;;18.20;96.50;;;;;;4977995;28;20514;-66
2022/03/25 11:21:44;;;;;;;32.97;17.33;;;17.90;96.70;;;;;;4960441;28;20225;-66
2022/03/25 11:24:24;;;;;;;31.90;16.67;;;18.00;96.30;;;;;;4961061;28;20434;-66
2022/03/25 11:26:51;;;;;;;32.60;16.67;;;18.10;96.30;;;;;;4978371;28;20127;-66
2022/03/25 11:29:22;;;;;;;30.17;16.88;;;18.10;95.80;;;;;;4941915;28;20146;-64
2022/03/25 11:32:11;;;;;;;36.67;17.30;;;18.20;95.80;;;;;;4957759;28;20102;-64
2022/03/25 11:34:52;;;;;;;27.48;16.50;;;18.10;95.30;;;;;;4974684;28;20034;-65
2022/03/25 11:37:26;;;;;;;29.73;16.98;;;18.40;95.60;;;;;;4955335;28;20119;-65
2022/03/25 11:40:20;;;;;;;28.38;15.52;;;18.30;97.70;;;;;;4976041;28;20046;-64
2022/03/25 11:42:46;;;;;;;37.92;17.08;;;18.50;96.10;;;;;;4975610;28;20055;-65
2022/03/25 11:45:21;;;;;;;26.50;15.43;;;18.20;96.10;;;;;;4969812;28;20500;-65
2022/03/25 11:48:02;;;;;;;27.23;16.42;;;18.10;95.60;;;;;;4970391;28;20035;-66
2022/03/25 11:50:35;;;;;;;26.00;16.27;;;18.10;95.60;;;;;;4974498;28;20521;-65
2022/03/25 11:53:12;;;;;;;28.27;16.75;;;18.30;96.40;;;;;;4957880;28;20093;-64
2022/03/25 11:56:11;;;;;;;28.60;16.48;;;18.50;96.30;;;;;;4956420;28;20050;-65
2022/03/25 11:58:37;;;;;;;26.58;15.88;;;18.20;94.80;;;;;;4957657;28;20233;-65
2022/03/25 12:01:05;;;;;;;28.60;16.20;;;18.10;95.80;;;;;;4974378;28;20058;-66
2022/03/25 12:03:47;;;;;;;28.27;16.35;;;18.30;95.70;;;;;;4956503;28;20512;-67
2022/03/25 12:06:13;;;;;;;24.42;15.40;;;18.40;95.50;;;;;;4957943;28;20466;-66
2022/03/25 12:08:53;;;;;;;23.27;15.75;;;18.10;95.40;;;;;;4973783;28;20053;-65
2022/03/25 12:11:48;;;;;;;30.42;15.98;;;18.30;95.70;;;;;;4970783;28;20050;-65
2022/03/25 12:14:14;;;;;;;25.00;14.10;;;18.00;95.10;;;;;;4952389;28;20077;-65
2022/03/25 12:16:46;;;;;;;24.40;14.30;;;18.20;95.60;;;;;;4954241;28;20092;-64
2022/03/25 12:19:30;;;;;;;29.33;13.57;;;18.20;95.70;;;;;;4947472;28;20089;-64
2022/03/25 12:21:57;;;;;;;25.58;14.45;;;18.40;94.80;;;;;;5161365;23;20055;-64
2022/03/25 12:24:24;;;;;;;23.73;13.50;;;18.30;95.80;;;;;;4931332;29;20039;-64
2022/03/25 12:27:02;;;;;;;26.02;14.80;;;18.10;95.60;;;;;;4934055;29;20077;-64
2022/03/25 12:29:40;;;;;;;25.33;15.00;;;18.00;95.00;;;;;;4934115;29;20919;-65
2022/03/25 12:32:09;;;;;;;22.50;14.07;;;19.80;96.20;;;;;;4933921;28;20108;-64
2022/03/25 12:34:40;;;;;;;22.08;12.70;;;17.90;95.90;;;;;;4934030;28;20389;-64
2022/03/25 12:37:11;;;;;;;20.45;12.77;;;17.90;96.80;;;;;;4931532;29;20532;-65
2022/03/25 12:39:37;;;;;;;19.95;12.30;;;17.70;95.60;;;;;;4934219;29;20572;-66
2022/03/25 12:42:13;;;;;;;26.70;14.35;;;18.00;95.50;;;;;;4935016;28;20177;-65
2022/03/25 12:44:39;;;;;;;24.80;14.32;;;18.10;95.10;;;;;;4935275;29;20043;-66
2022/03/25 12:47:06;;;;;;;22.80;13.65;;;18.10;95.70;;;;;;4921317;29;20047;-66
2022/03/25 12:49:33;;;;;;;28.30;14.20;;;18.20;95.10;;;;;;4936682;28;20124;-65
2022/03/25 12:52:01;;;;;;;25.33;14.75;;;18.00;95.90;;;;;;4934768;28;20090;-67
2022/03/25 12:54:31;;;;;;;23.45;13.05;;;18.20;94.70;;;;;;4935085;29;20183;-67
2022/03/25 12:56:59;;;;;;;28.27;13.45;;;18.20;95.10;;;;;;4919551;29;20047;-66
2022/03/25 12:59:33;;;;;;;26.25;13.73;;;17.90;94.60;;;;;;4935375;29;20055;-66
2022/03/25 13:02:10;;;;;;;23.67;13.13;;;18.00;94.60;;;;;;4933492;28;20047;-67
2022/03/25 13:04:35;;;;;;;26.98;13.20;;;18.10;94.50;;;;;;4936229;28;20476;-66
2022/03/25 13:07:12;;;;;;;22.98;13.15;;;18.10;94.80;;;;;;4935148;29;20043;-65
2022/03/25 13:09:55;;;;;;;25.20;13.85;;;18.10;95.80;;;;;;4934164;29;20500;-68
2022/03/25 13:12:37;;;;;;;23.40;12.50;;;18.10;95.60;;;;;;4935479;28;20506;-67